sensor_id;sensor_type;location;lat;lon;timestamp;pressure;altitude;pressure_sealevel;temperature;humidity
69622;BME280;56841;55.964;37.674;2023-03-01T00:02:21;98702.88;;;-6.01;62.30
69622;BME280;56841;55.964;37.674;2023-03-01T00:04:49;98705.44;;;-6.01;61.95
69622;BME280;56841;55.964;37.674;2023-03-01T00:07:15;98703.78;;;-6.02;62.28
69622;BME280;56841;55.964;37.674;2023-03-01T00:09:41;98711.09;;;-6.10;62.08
69622;BME280;56841;55.964;37.674;2023-03-01T00:12:06;98698.13;;;-6.09;62.15
69622;BME280;56841;55.964;37.674;2023-03-01T00:14:32;98704.63;;;-6.17;62.04
69622;BME280;56841;55.964;37.674;2023-03-01T00:16:59;98705.63;;;-6.20;62.01
69622;BME280;56841;55.964;37.674;2023-03-01T00:19:24;98702.72;;;-6.14;61.93
69622;BME280;56841;55.964;37.674;2023-03-01T00:21:50;98697.00;;;-6.19;62.23
69622;BME280;56841;55.964;37.674;2023-03-01T00:24:16;98697.91;;;-6.20;62.21
69622;BME280;56841;55.964;37.674;2023-03-01T00:26:42;98694.44;;;-6.19;61.91
69622;BME280;56841;55.964;37.674;2023-03-01T00:29:08;98697.91;;;-6.20;62.27
69622;BME280;56841;55.964;37.674;2023-03-01T00:31:33;98695.50;;;-6.23;62.26
69622;BME280;56841;55.964;37.674;2023-03-01T00:34:02;98696.34;;;-6.23;62.60
69622;BME280;56841;55.964;37.674;2023-03-01T00:36:33;98695.69;;;-6.26;62.33
69622;BME280;56841;55.964;37.674;2023-03-01T00:39:01;98701.25;;;-6.18;62.07
69622;BME280;56841;55.964;37.674;2023-03-01T00:41:29;98700.66;;;-6.23;62.33
69622;BME280;56841;55.964;37.674;2023-03-01T00:43:55;98693.03;;;-6.25;62.35
69622;BME280;56841;55.964;37.674;2023-03-01T00:46:24;98698.91;;;-6.23;62.24
69622;BME280;56841;55.964;37.674;2023-03-01T00:48:50;98702.72;;;-6.30;61.97
69622;BME280;56841;55.964;37.674;2023-03-01T00:51:23;98706.31;;;-6.32;62.63
69622;BME280;56841;55.964;37.674;2023-03-01T00:53:54;98694.97;;;-6.28;62.55
69622;BME280;56841;55.964;37.674;2023-03-01T00:56:20;98701.19;;;-6.32;62.48
69622;BME280;56841;55.964;37.674;2023-03-01T00:58:46;98691.78;;;-6.33;62.63
69622;BME280;56841;55.964;37.674;2023-03-01T01:01:14;98690.16;;;-6.34;62.41
69622;BME280;56841;55.964;37.674;2023-03-01T01:03:52;98687.31;;;-6.30;62.46
69622;BME280;56841;55.964;37.674;2023-03-01T01:06:25;98703.06;;;-6.36;62.61
69622;BME280;56841;55.964;37.674;2023-03-01T01:08:51;98696.44;;;-6.40;62.99
69622;BME280;56841;55.964;37.674;2023-03-01T01:11:18;98693.63;;;-6.35;62.51
69622;BME280;56841;55.964;37.674;2023-03-01T01:13:45;98698.13;;;-6.39;63.03
69622;BME280;56841;55.964;37.674;2023-03-01T01:16:12;98693.38;;;-6.31;62.80
69622;BME280;56841;55.964;37.674;2023-03-01T01:18:38;98698.41;;;-6.29;62.94
69622;BME280;56841;55.964;37.674;2023-03-01T01:21:12;98689.56;;;-6.24;62.62
69622;BME280;56841;55.964;37.674;2023-03-01T01:23:39;98698.19;;;-6.25;62.77
69622;BME280;56841;55.964;37.674;2023-03-01T01:26:08;98695.69;;;-6.26;62.91
69622;BME280;56841;55.964;37.674;2023-03-01T01:28:34;98709.44;;;-6.27;63.13
69622;BME280;56841;55.964;37.674;2023-03-01T01:31:00;98705.56;;;-6.34;63.29
69622;BME280;56841;55.964;37.674;2023-03-01T01:33:26;98709.28;;;-6.24;63.27
69622;BME280;56841;55.964;37.674;2023-03-01T01:35:52;98707.81;;;-6.28;63.25
69622;BME280;56841;55.964;37.674;2023-03-01T01:38:19;98696.44;;;-6.24;63.40
69622;BME280;56841;55.964;37.674;2023-03-01T01:40:47;98700.50;;;-6.20;63.28
69622;BME280;56841;55.964;37.674;2023-03-01T01:43:23;98700.22;;;-6.15;62.88
69622;BME280;56841;55.964;37.674;2023-03-01T01:45:55;98701.31;;;-6.20;63.05
69622;BME280;56841;55.964;37.674;2023-03-01T01:48:26;98702.72;;;-6.30;63.35
69622;BME280;56841;55.964;37.674;2023-03-01T01:51:07;98701.19;;;-6.32;63.42
69622;BME280;56841;55.964;37.674;2023-03-01T01:53:35;98707.03;;;-6.30;63.55
69622;BME280;56841;55.964;37.674;2023-03-01T01:56:02;98711.53;;;-6.34;63.87
69622;BME280;56841;55.964;37.674;2023-03-01T01:58:29;98713.59;;;-6.40;63.78
69622;BME280;56841;55.964;37.674;2023-03-01T02:00:56;98722.28;;;-6.43;63.67
69622;BME280;56841;55.964;37.674;2023-03-01T02:03:23;98715.66;;;-6.47;64.23
69622;BME280;56841;55.964;37.674;2023-03-01T02:08:17;98716.50;;;-6.62;64.15
69622;BME280;56841;55.964;37.674;2023-03-01T02:10:45;98722.31;;;-6.59;63.91
69622;BME280;56841;55.964;37.674;2023-03-01T02:13:12;98711.22;;;-6.59;64.10
69622;BME280;56841;55.964;37.674;2023-03-01T02:15:38;98717.22;;;-6.60;64.29
69622;BME280;56841;55.964;37.674;2023-03-01T02:18:05;98718.56;;;-6.53;64.10
69622;BME280;56841;55.964;37.674;2023-03-01T02:20:50;98705.56;;;-6.50;64.14
69622;BME280;56841;55.964;37.674;2023-03-01T02:23:17;98715.16;;;-6.54;64.38
69622;BME280;56841;55.964;37.674;2023-03-01T02:25:47;98715.84;;;-6.66;64.63
69622;BME280;56841;55.964;37.674;2023-03-01T02:30:45;98717.81;;;-6.71;64.85
69622;BME280;56841;55.964;37.674;2023-03-01T02:33:33;98727.50;;;-6.76;65.08
69622;BME280;56841;55.964;37.674;2023-03-01T02:36:12;98713.66;;;-6.74;64.94
69622;BME280;56841;55.964;37.674;2023-03-01T02:38:43;98718.06;;;-6.60;65.00
69622;BME280;56841;55.964;37.674;2023-03-01T02:41:13;98727.34;;;-6.73;65.31
69622;BME280;56841;55.964;37.674;2023-03-01T02:43:41;98723.78;;;-6.71;65.36
69622;BME280;56841;55.964;37.674;2023-03-01T02:46:27;98736.19;;;-6.79;65.10
69622;BME280;56841;55.964;37.674;2023-03-01T02:48:55;98738.81;;;-6.80;65.57
69622;BME280;56841;55.964;37.674;2023-03-01T02:54:22;98743.47;;;-6.87;65.53
69622;BME280;56841;55.964;37.674;2023-03-01T02:56:51;98737.59;;;-6.89;65.78
69622;BME280;56841;55.964;37.674;2023-03-01T02:59:22;98727.78;;;-6.98;66.00
69622;BME280;56841;55.964;37.674;2023-03-01T03:01:50;98737.16;;;-6.97;65.98
69622;BME280;56841;55.964;37.674;2023-03-01T03:04:19;98748.41;;;-7.00;66.46
69622;BME280;56841;55.964;37.674;2023-03-01T03:06:50;98737.63;;;-7.06;66.67
69622;BME280;56841;55.964;37.674;2023-03-01T03:09:17;98736.50;;;-7.01;66.50
69622;BME280;56841;55.964;37.674;2023-03-01T03:11:45;98742.44;;;-7.00;66.46
69622;BME280;56841;55.964;37.674;2023-03-01T03:14:14;98740.25;;;-7.08;66.57
69622;BME280;56841;55.964;37.674;2023-03-01T03:16:45;98738.75;;;-7.12;66.65
69622;BME280;56841;55.964;37.674;2023-03-01T03:19:12;98743.06;;;-7.12;66.99
69622;BME280;56841;55.964;37.674;2023-03-01T03:21:38;98741.63;;;-7.18;66.75
69622;BME280;56841;55.964;37.674;2023-03-01T03:24:04;98734.94;;;-7.21;66.90
69622;BME280;56841;55.964;37.674;2023-03-01T03:26:31;98740.91;;;-7.20;67.17
69622;BME280;56841;55.964;37.674;2023-03-01T03:28:57;98740.06;;;-7.21;67.11
69622;BME280;56841;55.964;37.674;2023-03-01T03:31:23;98740.28;;;-7.25;67.45
69622;BME280;56841;55.964;37.674;2023-03-01T03:33:49;98740.97;;;-7.22;67.60
69622;BME280;56841;55.964;37.674;2023-03-01T03:36:18;98754.31;;;-7.32;67.56
69622;BME280;56841;55.964;37.674;2023-03-01T03:38:44;98744.81;;;-7.30;67.80
69622;BME280;56841;55.964;37.674;2023-03-01T03:41:11;98744.38;;;-7.21;67.57
69622;BME280;56841;55.964;37.674;2023-03-01T03:43:39;98745.66;;;-7.30;67.62
69622;BME280;56841;55.964;37.674;2023-03-01T03:46:06;98747.44;;;-7.32;67.86
69622;BME280;56841;55.964;37.674;2023-03-01T03:48:34;98745.41;;;-7.25;67.55
69622;BME280;56841;55.964;37.674;2023-03-01T03:51:01;98741.88;;;-7.23;67.56
69622;BME280;56841;55.964;37.674;2023-03-01T03:53:28;98747.16;;;-7.26;67.70
69622;BME280;56841;55.964;37.674;2023-03-01T03:55:55;98742.25;;;-7.30;68.11
69622;BME280;56841;55.964;37.674;2023-03-01T03:58:22;98737.72;;;-7.25;67.78
69622;BME280;56841;55.964;37.674;2023-03-01T04:00:56;98745.06;;;-7.18;67.68
69622;BME280;56841;55.964;37.674;2023-03-01T04:03:25;98745.34;;;-7.24;67.59
69622;BME280;56841;55.964;37.674;2023-03-01T04:05:51;98758.78;;;-7.36;68.00
69622;BME280;56841;55.964;37.674;2023-03-01T04:08:19;98758.72;;;-7.34;68.22
69622;BME280;56841;55.964;37.674;2023-03-01T04:10:51;98757.03;;;-7.35;68.10
69622;BME280;56841;55.964;37.674;2023-03-01T04:13:20;98763.63;;;-7.47;68.25
69622;BME280;56841;55.964;37.674;2023-03-01T04:15:50;98764.00;;;-7.55;68.49
69622;BME280;56841;55.964;37.674;2023-03-01T04:18:17;98768.59;;;-7.44;68.58
69622;BME280;56841;55.964;37.674;2023-03-01T04:20:44;98755.69;;;-7.43;68.58
69622;BME280;56841;55.964;37.674;2023-03-01T04:23:16;98769.56;;;-7.47;68.53
69622;BME280;56841;55.964;37.674;2023-03-01T04:25:55;98770.25;;;-7.43;68.44
69622;BME280;56841;55.964;37.674;2023-03-01T04:30:51;98764.44;;;-7.47;68.96
69622;BME280;56841;55.964;37.674;2023-03-01T04:33:18;98761.50;;;-7.56;69.07
69622;BME280;56841;55.964;37.674;2023-03-01T04:35:44;98771.06;;;-7.43;69.10
69622;BME280;56841;55.964;37.674;2023-03-01T04:38:10;98766.56;;;-7.55;68.88
69622;BME280;56841;55.964;37.674;2023-03-01T04:40:36;98769.72;;;-7.50;69.00
69622;BME280;56841;55.964;37.674;2023-03-01T04:43:03;98769.03;;;-7.53;68.92
69622;BME280;56841;55.964;37.674;2023-03-01T04:45:31;98769.28;;;-7.58;69.25
69622;BME280;56841;55.964;37.674;2023-03-01T04:47:56;98777.66;;;-7.54;69.29
69622;BME280;56841;55.964;37.674;2023-03-01T04:50:24;98776.16;;;-7.58;69.63
69622;BME280;56841;55.964;37.674;2023-03-01T04:52:51;98763.91;;;-7.53;69.40
69622;BME280;56841;55.964;37.674;2023-03-01T04:55:17;98776.97;;;-7.58;69.28
69622;BME280;56841;55.964;37.674;2023-03-01T04:57:44;98780.28;;;-7.56;69.49
69622;BME280;56841;55.964;37.674;2023-03-01T05:00:12;98779.81;;;-7.64;69.53
69622;BME280;56841;55.964;37.674;2023-03-01T05:02:49;98779.91;;;-7.66;69.76
69622;BME280;56841;55.964;37.674;2023-03-01T05:05:25;98782.16;;;-7.59;69.49
69622;BME280;56841;55.964;37.674;2023-03-01T05:07:57;98782.78;;;-7.54;69.69
69622;BME280;56841;55.964;37.674;2023-03-01T05:10:24;98785.09;;;-7.50;69.39
69622;BME280;56841;55.964;37.674;2023-03-01T05:12:50;98787.97;;;-7.56;69.64
69622;BME280;56841;55.964;37.674;2023-03-01T05:15:18;98794.97;;;-7.42;69.17
69622;BME280;56841;55.964;37.674;2023-03-01T05:17:44;98792.06;;;-7.34;69.09
69622;BME280;56841;55.964;37.674;2023-03-01T05:20:11;98791.22;;;-7.18;68.66
69622;BME280;56841;55.964;37.674;2023-03-01T05:22:37;98794.06;;;-7.06;68.58
69622;BME280;56841;55.964;37.674;2023-03-01T05:25:04;98796.28;;;-7.16;68.31
69622;BME280;56841;55.964;37.674;2023-03-01T05:27:30;98795.72;;;-7.05;68.51
69622;BME280;56841;55.964;37.674;2023-03-01T05:29:57;98795.63;;;-6.86;68.08
69622;BME280;56841;55.964;37.674;2023-03-01T05:32:22;98792.91;;;-6.83;67.86
69622;BME280;56841;55.964;37.674;2023-03-01T05:34:48;98811.25;;;-6.91;68.11
69622;BME280;56841;55.964;37.674;2023-03-01T05:37:14;98818.69;;;-6.69;67.43
69622;BME280;56841;55.964;37.674;2023-03-01T05:39:40;98811.31;;;-6.75;67.34
69622;BME280;56841;55.964;37.674;2023-03-01T05:42:10;98815.16;;;-6.66;67.25
69622;BME280;56841;55.964;37.674;2023-03-01T05:44:37;98817.53;;;-6.63;67.28
69622;BME280;56841;55.964;37.674;2023-03-01T05:47:03;98819.06;;;-6.59;67.34
69622;BME280;56841;55.964;37.674;2023-03-01T05:49:29;98823.13;;;-6.55;67.29
69622;BME280;56841;55.964;37.674;2023-03-01T05:51:56;98823.28;;;-6.58;67.54
69622;BME280;56841;55.964;37.674;2023-03-01T05:54:22;98832.84;;;-6.45;67.33
69622;BME280;56841;55.964;37.674;2023-03-01T05:56:47;98826.63;;;-6.40;67.17
69622;BME280;56841;55.964;37.674;2023-03-01T05:59:13;98826.78;;;-6.44;67.22
69622;BME280;56841;55.964;37.674;2023-03-01T06:01:41;98806.78;;;-6.54;67.10
69622;BME280;56841;55.964;37.674;2023-03-01T06:04:07;98837.66;;;-6.38;67.25
69622;BME280;56841;55.964;37.674;2023-03-01T06:06:34;98833.03;;;-6.32;67.08
69622;BME280;56841;55.964;37.674;2023-03-01T06:09:03;98823.75;;;-6.18;66.66
69622;BME280;56841;55.964;37.674;2023-03-01T06:11:29;98831.47;;;-6.18;66.81
69622;BME280;56841;55.964;37.674;2023-03-01T06:13:55;98832.78;;;-6.27;66.61
69622;BME280;56841;55.964;37.674;2023-03-01T06:16:21;98843.72;;;-6.24;66.85
69622;BME280;56841;55.964;37.674;2023-03-01T06:18:47;98828.88;;;-6.03;66.26
69622;BME280;56841;55.964;37.674;2023-03-01T06:21:12;98826.91;;;-6.13;66.70
69622;BME280;56841;55.964;37.674;2023-03-01T06:23:39;98827.25;;;-6.04;66.49
69622;BME280;56841;55.964;37.674;2023-03-01T06:26:06;98833.34;;;-5.90;66.37
69622;BME280;56841;55.964;37.674;2023-03-01T06:28:32;98827.13;;;-5.86;65.84
69622;BME280;56841;55.964;37.674;2023-03-01T06:30:58;98832.38;;;-6.04;65.88
69622;BME280;56841;55.964;37.674;2023-03-01T06:33:24;98831.28;;;-5.84;66.13
69622;BME280;56841;55.964;37.674;2023-03-01T06:35:51;98841.13;;;-5.76;65.41
69622;BME280;56841;55.964;37.674;2023-03-01T06:38:17;98833.19;;;-5.87;65.65
69622;BME280;56841;55.964;37.674;2023-03-01T06:40:44;98834.56;;;-5.66;65.76
69622;BME280;56841;55.964;37.674;2023-03-01T06:43:11;98837.28;;;-5.53;65.24
69622;BME280;56841;55.964;37.674;2023-03-01T06:45:37;98841.41;;;-5.35;64.59
69622;BME280;56841;55.964;37.674;2023-03-01T06:48:07;98845.34;;;-5.43;64.81
69622;BME280;56841;55.964;37.674;2023-03-01T06:50:34;98847.03;;;-5.44;64.79
69622;BME280;56841;55.964;37.674;2023-03-01T06:53:00;98843.91;;;-5.49;65.19
69622;BME280;56841;55.964;37.674;2023-03-01T06:55:26;98847.13;;;-5.30;64.92
69622;BME280;56841;55.964;37.674;2023-03-01T06:57:56;98851.53;;;-5.32;64.32
69622;BME280;56841;55.964;37.674;2023-03-01T07:00:23;98855.56;;;-5.28;64.33
69622;BME280;56841;55.964;37.674;2023-03-01T07:02:49;98859.69;;;-5.39;64.75
69622;BME280;56841;55.964;37.674;2023-03-01T07:05:14;98861.47;;;-5.26;64.54
69622;BME280;56841;55.964;37.674;2023-03-01T07:07:40;98863.28;;;-5.28;64.51
69622;BME280;56841;55.964;37.674;2023-03-01T07:10:07;98867.22;;;-5.06;64.31
69622;BME280;56841;55.964;37.674;2023-03-01T07:12:33;98856.31;;;-5.26;64.55
69622;BME280;56841;55.964;37.674;2023-03-01T07:14:58;98870.53;;;-5.34;64.43
69622;BME280;56841;55.964;37.674;2023-03-01T07:17:24;98863.19;;;-4.96;64.14
69622;BME280;56841;55.964;37.674;2023-03-01T07:19:50;98878.41;;;-4.77;63.64
69622;BME280;56841;55.964;37.674;2023-03-01T07:22:16;98881.13;;;-4.64;63.70
69622;BME280;56841;55.964;37.674;2023-03-01T07:24:42;98883.34;;;-4.44;62.78
69622;BME280;56841;55.964;37.674;2023-03-01T07:27:09;98880.66;;;-4.42;62.79
69622;BME280;56841;55.964;37.674;2023-03-01T07:29:35;98888.13;;;-4.38;62.66
69622;BME280;56841;55.964;37.674;2023-03-01T07:32:03;98872.81;;;-4.55;63.26
69622;BME280;56841;55.964;37.674;2023-03-01T07:34:29;98877.72;;;-4.65;63.26
69622;BME280;56841;55.964;37.674;2023-03-01T07:36:54;98875.78;;;-4.47;63.30
69622;BME280;56841;55.964;37.674;2023-03-01T07:39:21;98880.47;;;-4.54;63.55
69622;BME280;56841;55.964;37.674;2023-03-01T07:41:49;98875.97;;;-4.50;63.69
69622;BME280;56841;55.964;37.674;2023-03-01T07:44:19;98883.50;;;-4.61;63.65
69622;BME280;56841;55.964;37.674;2023-03-01T07:46:45;98890.88;;;-4.55;63.51
69622;BME280;56841;55.964;37.674;2023-03-01T07:49:11;98892.31;;;-4.65;63.92
69622;BME280;56841;55.964;37.674;2023-03-01T07:51:36;98890.91;;;-4.26;63.50
69622;BME280;56841;55.964;37.674;2023-03-01T07:54:02;98896.03;;;-4.12;63.29
69622;BME280;56841;55.964;37.674;2023-03-01T07:56:28;98885.16;;;-3.89;62.85
69622;BME280;56841;55.964;37.674;2023-03-01T07:58:53;98881.06;;;-3.64;62.57
69622;BME280;56841;55.964;37.674;2023-03-01T08:01:21;98887.09;;;-3.51;62.09
69622;BME280;56841;55.964;37.674;2023-03-01T08:03:47;98891.00;;;-3.58;62.25
69622;BME280;56841;55.964;37.674;2023-03-01T08:06:15;98891.69;;;-3.42;62.07
69622;BME280;56841;55.964;37.674;2023-03-01T08:08:42;98899.44;;;-3.56;62.20
69622;BME280;56841;55.964;37.674;2023-03-01T08:11:11;98898.13;;;-3.35;62.07
69622;BME280;56841;55.964;37.674;2023-03-01T08:13:37;98889.88;;;-3.27;62.09
69622;BME280;56841;55.964;37.674;2023-03-01T08:16:08;98887.53;;;-3.44;62.11
69622;BME280;56841;55.964;37.674;2023-03-01T08:18:35;98891.53;;;-3.26;61.78
69622;BME280;56841;55.964;37.674;2023-03-01T08:21:06;98895.72;;;-3.11;61.71
69622;BME280;56841;55.964;37.674;2023-03-01T08:23:32;98910.75;;;-2.90;61.24
69622;BME280;56841;55.964;37.674;2023-03-01T08:26:09;98903.00;;;-2.90;60.98
69622;BME280;56841;55.964;37.674;2023-03-01T08:28:36;98915.06;;;-3.03;60.91
69622;BME280;56841;55.964;37.674;2023-03-01T08:31:02;98909.34;;;-3.08;61.92
69622;BME280;56841;55.964;37.674;2023-03-01T08:33:28;98905.66;;;-2.92;61.29
69622;BME280;56841;55.964;37.674;2023-03-01T08:36:02;98911.19;;;-2.71;60.57
69622;BME280;56841;55.964;37.674;2023-03-01T08:38:28;98900.63;;;-2.93;61.04
69622;BME280;56841;55.964;37.674;2023-03-01T08:40:53;98923.00;;;-3.06;61.54
69622;BME280;56841;55.964;37.674;2023-03-01T08:43:19;98909.69;;;-3.00;61.18
69622;BME280;56841;55.964;37.674;2023-03-01T08:45:45;98911.69;;;-2.78;61.21
69622;BME280;56841;55.964;37.674;2023-03-01T08:48:13;98920.28;;;-2.78;61.65
69622;BME280;56841;55.964;37.674;2023-03-01T08:50:39;98914.03;;;-2.88;61.77
69622;BME280;56841;55.964;37.674;2023-03-01T08:53:04;98909.66;;;-3.13;62.33
69622;BME280;56841;55.964;37.674;2023-03-01T08:55:31;98924.66;;;-3.33;63.06
69622;BME280;56841;55.964;37.674;2023-03-01T08:57:57;98909.22;;;-3.47;63.23
69622;BME280;56841;55.964;37.674;2023-03-01T09:00:24;98924.88;;;-3.50;63.61
69622;BME280;56841;55.964;37.674;2023-03-01T09:02:50;98935.97;;;-3.76;64.20
69622;BME280;56841;55.964;37.674;2023-03-01T09:05:16;98923.91;;;-3.62;63.94
69622;BME280;56841;55.964;37.674;2023-03-01T09:07:42;98921.44;;;-3.36;63.31
69622;BME280;56841;55.964;37.674;2023-03-01T09:10:08;98921.38;;;-3.22;63.24
69622;BME280;56841;55.964;37.674;2023-03-01T09:12:35;98915.00;;;-3.16;62.64
69622;BME280;56841;55.964;37.674;2023-03-01T09:15:00;98924.94;;;-3.37;63.10
69622;BME280;56841;55.964;37.674;2023-03-01T09:17:26;98932.59;;;-3.36;62.84
69622;BME280;56841;55.964;37.674;2023-03-01T09:19:51;98928.47;;;-3.11;62.45
69622;BME280;56841;55.964;37.674;2023-03-01T09:22:17;98935.34;;;-2.97;61.83
69622;BME280;56841;55.964;37.674;2023-03-01T09:24:43;98924.03;;;-2.56;61.22
69622;BME280;56841;55.964;37.674;2023-03-01T09:27:09;98926.00;;;-2.34;60.38
69622;BME280;56841;55.964;37.674;2023-03-01T09:29:36;98913.38;;;-2.13;60.31
69622;BME280;56841;55.964;37.674;2023-03-01T09:32:02;98908.28;;;-1.77;59.38
69622;BME280;56841;55.964;37.674;2023-03-01T09:34:28;98913.09;;;-2.22;59.37
69622;BME280;56841;55.964;37.674;2023-03-01T09:36:57;98911.84;;;-2.03;59.62
69622;BME280;56841;55.964;37.674;2023-03-01T09:39:22;98911.34;;;-1.59;58.88
69622;BME280;56841;55.964;37.674;2023-03-01T09:42:01;98904.56;;;-1.49;58.17
69622;BME280;56841;55.964;37.674;2023-03-01T09:44:29;98915.88;;;-1.50;56.68
69622;BME280;56841;55.964;37.674;2023-03-01T09:47:00;98919.09;;;-1.59;56.82
69622;BME280;56841;55.964;37.674;2023-03-01T09:49:32;98912.22;;;-1.23;56.37
69622;BME280;56841;55.964;37.674;2023-03-01T09:54:24;98913.72;;;-1.32;55.54
69622;BME280;56841;55.964;37.674;2023-03-01T09:57:01;98917.69;;;-0.91;55.66
69622;BME280;56841;55.964;37.674;2023-03-01T10:02:37;98919.03;;;-1.70;57.48
69622;BME280;56841;55.964;37.674;2023-03-01T10:05:27;98918.47;;;-1.26;56.62
69622;BME280;56841;55.964;37.674;2023-03-01T10:10:38;98926.00;;;-1.47;56.33
69622;BME280;56841;55.964;37.674;2023-03-01T10:13:17;98930.22;;;-1.95;57.72
69622;BME280;56841;55.964;37.674;2023-03-01T10:15:55;98938.34;;;-2.25;58.49
69622;BME280;56841;55.964;37.674;2023-03-01T10:18:26;98931.19;;;-2.34;59.34
69622;BME280;56841;55.964;37.674;2023-03-01T10:20:57;98931.00;;;-2.31;59.13
69622;BME280;56841;55.964;37.674;2023-03-01T10:23:25;98934.06;;;-2.26;59.15
69622;BME280;56841;55.964;37.674;2023-03-01T10:31:21;98945.78;;;-2.08;58.64
69622;BME280;56841;55.964;37.674;2023-03-01T10:33:48;98930.75;;;-1.90;58.54
69622;BME280;56841;55.964;37.674;2023-03-01T10:36:18;98928.47;;;-1.82;58.59
69622;BME280;56841;55.964;37.674;2023-03-01T10:38:53;98927.00;;;-1.73;57.71
69622;BME280;56841;55.964;37.674;2023-03-01T10:41:21;98927.13;;;-1.51;56.96
69622;BME280;56841;55.964;37.674;2023-03-01T10:43:55;98932.19;;;-1.36;56.95
69622;BME280;56841;55.964;37.674;2023-03-01T10:46:26;98939.06;;;-1.61;56.57
69622;BME280;56841;55.964;37.674;2023-03-01T10:51:40;98921.41;;;-1.67;56.07
69622;BME280;56841;55.964;37.674;2023-03-01T10:56:51;98919.56;;;-1.41;55.73
69622;BME280;56841;55.964;37.674;2023-03-01T10:59:32;98928.66;;;-1.72;56.01
69622;BME280;56841;55.964;37.674;2023-03-01T11:02:22;98930.34;;;-1.97;57.82
69622;BME280;56841;55.964;37.674;2023-03-01T11:05:21;98919.38;;;-2.13;58.06
69622;BME280;56841;55.964;37.674;2023-03-01T11:10:29;98935.41;;;-1.95;57.56
69622;BME280;56841;55.964;37.674;2023-03-01T11:15:38;98931.69;;;-2.04;56.30
69622;BME280;56841;55.964;37.674;2023-03-01T11:18:04;98927.75;;;-1.84;56.04
69622;BME280;56841;55.964;37.674;2023-03-01T11:20:43;98925.13;;;-1.34;54.95
69622;BME280;56841;55.964;37.674;2023-03-01T11:23:11;98936.94;;;-1.67;55.27
69622;BME280;56841;55.964;37.674;2023-03-01T11:25:53;98930.66;;;-1.52;55.40
69622;BME280;56841;55.964;37.674;2023-03-01T11:28:21;98934.56;;;-1.33;55.84
69622;BME280;56841;55.964;37.674;2023-03-01T11:33:42;98937.81;;;-1.42;56.03
69622;BME280;56841;55.964;37.674;2023-03-01T11:39:30;98936.63;;;-1.38;54.83
69622;BME280;56841;55.964;37.674;2023-03-01T11:42:06;98925.47;;;-1.39;55.09
69622;BME280;56841;55.964;37.674;2023-03-01T11:44:36;98939.38;;;-1.53;55.10
69622;BME280;56841;55.964;37.674;2023-03-01T11:49:54;98934.22;;;-1.65;55.69
69622;BME280;56841;55.964;37.674;2023-03-01T11:55:26;98949.53;;;-1.50;56.21
69622;BME280;56841;55.964;37.674;2023-03-01T12:09:13;98946.03;;;-1.61;55.38
69622;BME280;56841;55.964;37.674;2023-03-01T12:17:11;98952.47;;;-1.93;55.78
69622;BME280;56841;55.964;37.674;2023-03-01T12:25:58;98962.84;;;-1.93;54.86
69622;BME280;56841;55.964;37.674;2023-03-01T12:28:37;98946.28;;;-2.03;55.53
69622;BME280;56841;55.964;37.674;2023-03-01T12:37:22;98953.75;;;-2.11;56.61
69622;BME280;56841;55.964;37.674;2023-03-01T12:43:13;98953.94;;;-2.14;55.68
69622;BME280;56841;55.964;37.674;2023-03-01T12:46:09;98959.13;;;-2.14;55.78
69622;BME280;56841;55.964;37.674;2023-03-01T12:51:26;98955.19;;;-2.07;56.36
69622;BME280;56841;55.964;37.674;2023-03-01T12:53:55;98952.91;;;-1.86;56.46
69622;BME280;56841;55.964;37.674;2023-03-01T12:56:35;98974.44;;;-1.98;56.09
69622;BME280;56841;55.964;37.674;2023-03-01T13:04:51;98960.97;;;-2.16;57.19
69622;BME280;56841;55.964;37.674;2023-03-01T13:07:21;98959.13;;;-2.27;56.83
69622;BME280;56841;55.964;37.674;2023-03-01T13:18:03;98955.47;;;-2.50;57.66
69622;BME280;56841;55.964;37.674;2023-03-01T13:20:45;98966.22;;;-2.56;57.67
69622;BME280;56841;55.964;37.674;2023-03-01T13:28:52;98943.69;;;-2.67;58.29
69622;BME280;56841;55.964;37.674;2023-03-01T13:33:48;98951.00;;;-2.73;57.98
69622;BME280;56841;55.964;37.674;2023-03-01T13:39:03;98943.16;;;-2.59;58.02
69622;BME280;56841;55.964;37.674;2023-03-01T13:46:56;98922.78;;;-2.51;57.44
69622;BME280;56841;55.964;37.674;2023-03-01T13:49:27;98949.25;;;-2.60;57.27
69622;BME280;56841;55.964;37.674;2023-03-01T13:51:54;98928.66;;;-2.74;58.09
69622;BME280;56841;55.964;37.674;2023-03-01T13:54:27;98928.78;;;-2.63;58.57
69622;BME280;56841;55.964;37.674;2023-03-01T13:56:56;98933.72;;;-2.60;58.34
69622;BME280;56841;55.964;37.674;2023-03-01T13:59:23;98927.81;;;-2.75;57.85
69622;BME280;56841;55.964;37.674;2023-03-01T14:06:48;98918.31;;;-2.74;58.59
69622;BME280;56841;55.964;37.674;2023-03-01T14:09:23;98917.13;;;-2.56;58.33
69622;BME280;56841;55.964;37.674;2023-03-01T14:12:15;98916.69;;;-2.63;58.26
69622;BME280;56841;55.964;37.674;2023-03-01T14:15:31;98913.59;;;-2.55;57.79
69622;BME280;56841;55.964;37.674;2023-03-01T14:20:42;98907.88;;;-2.60;57.76
69622;BME280;56841;55.964;37.674;2023-03-01T14:23:15;98903.13;;;-2.79;57.62
69622;BME280;56841;55.964;37.674;2023-03-01T14:25:49;98893.91;;;-2.70;58.05
69622;BME280;56841;55.964;37.674;2023-03-01T14:28:18;98896.81;;;-2.75;58.28
69622;BME280;56841;55.964;37.674;2023-03-01T14:30:50;98884.63;;;-2.73;58.00
69622;BME280;56841;55.964;37.674;2023-03-01T14:33:28;98891.34;;;-2.70;58.22
69622;BME280;56841;55.964;37.674;2023-03-01T14:36:00;98891.75;;;-2.76;58.48
69622;BME280;56841;55.964;37.674;2023-03-01T14:41:04;98886.88;;;-2.81;58.43
69622;BME280;56841;55.964;37.674;2023-03-01T14:43:30;98883.66;;;-2.84;59.24
69622;BME280;56841;55.964;37.674;2023-03-01T14:45:57;98881.47;;;-2.91;58.72
69622;BME280;56841;55.964;37.674;2023-03-01T14:48:23;98890.72;;;-2.87;59.04
69622;BME280;56841;55.964;37.674;2023-03-01T14:50:49;98883.88;;;-2.88;59.51
69622;BME280;56841;55.964;37.674;2023-03-01T14:53:25;98883.56;;;-2.96;59.57
69622;BME280;56841;55.964;37.674;2023-03-01T14:55:55;98888.50;;;-3.05;60.04
69622;BME280;56841;55.964;37.674;2023-03-01T14:58:24;98890.69;;;-2.99;60.21
69622;BME280;56841;55.964;37.674;2023-03-01T15:01:02;98894.66;;;-3.08;60.84
69622;BME280;56841;55.964;37.674;2023-03-01T15:03:43;98872.28;;;-3.07;61.44